Airfield :
LOGIN :

Register | Disclaimer

   EN    FR    IT 

 










Legend :    VFR   Marginal VFR   IFR   Intensive IFR   Very Intensive IFR
Visi :
Ceiling :
>= 8 km
>= 3000ft
5 to 8 km
1000 to 3000 ft
1500m to 5 km
500 to 1000 ft
800 to 1500m
200 to 500 ft
< 800m
< 200 ft
Symbols :   Thunderstorms  Fog  Heavy snow  Heavy precipitations  Wind > 20 kt
SIGMETs :     Misc.  Thunderstorms  Icing  Turbulence  Mountain Waves  Volcanic Ashes







- Airport Elevation : 289 ft
- IATA code : ZAD


LDZD - Zadar

CURRENT METAR :
  • 151600Z 35003KT CAVOK 18/14 Q1019 NOSIG

EXPIRED METARs :
  • 151530Z 00000KT CAVOK 19/14 Q1019 NOSIG
  • 151500Z 03003KT 320V060 9999 SCT075 20/13 Q1019 NOSIG
  • 151430Z 03003KT 330V070 9999 SCT075 20/13 Q1019 NOSIG
  • 151400Z 02003KT 340V070 9999 SCT075 20/13 Q1019 NOSIG
  • 151330Z VRB03KT 9999 BKN075 19/14 Q1019 NOSIG

TAF TAF LDZD
Valid from the 15 at 12:00 until the 16 at 12:00 UTC


151125Z 1512/1612 VRB02KT 9999 SCT050 TX21/1611Z TN13/1603Z
BECMG 1608/1610 14007KT
No reported NOTAMs for that airfield.



MET'MAP, your aeronautical weather chart ! - Copyright ORBIFLY December 2007 - Disclaimer

ORBIFLY MET'MAP TEAM :

Programming & Development : Alexandra Zaïnal
Concept & Development : Baudouin d'Aumeries
Co-Development & Prog : Marc-Olivier Méhu
Technical & hardware support : Manuel Goepfert

Contact : metmap@orbifly.com




SOURCES & CREDITS :

   NOAA